sensor_id;sensor_type;location;lat;lon;timestamp;temperature;humidity
70214;DHT22;60138;55.808;37.078;2022-12-11T00:02:17;1.11;75.35
70214;DHT22;60138;55.808;37.078;2022-12-11T00:04:43;1.14;75.31
70214;DHT22;60138;55.808;37.078;2022-12-11T00:07:11;1.14;75.31
70214;DHT22;60138;55.808;37.078;2022-12-11T00:09:40;1.14;75.24
70214;DHT22;60138;55.808;37.078;2022-12-11T00:12:08;1.12;75.44
70214;DHT22;60138;55.808;37.078;2022-12-11T00:14:34;1.12;75.55
70214;DHT22;60138;55.808;37.078;2022-12-11T00:16:59;1.12;75.46
70214;DHT22;60138;55.808;37.078;2022-12-11T00:19:25;1.13;75.50
70214;DHT22;60138;55.808;37.078;2022-12-11T00:21:51;1.16;75.41
70214;DHT22;60138;55.808;37.078;2022-12-11T00:24:16;1.14;75.35
70214;DHT22;60138;55.808;37.078;2022-12-11T00:26:42;1.17;75.31
70214;DHT22;60138;55.808;37.078;2022-12-11T00:29:09;1.16;75.23
70214;DHT22;60138;55.808;37.078;2022-12-11T00:31:35;1.13;75.25
70214;DHT22;60138;55.808;37.078;2022-12-11T00:34:03;1.14;75.17
70214;DHT22;60138;55.808;37.078;2022-12-11T00:36:32;1.12;75.15
70214;DHT22;60138;55.808;37.078;2022-12-11T00:38:57;1.13;75.16
70214;DHT22;60138;55.808;37.078;2022-12-11T00:41:23;1.16;75.23
70214;DHT22;60138;55.808;37.078;2022-12-11T00:43:49;1.14;75.15
70214;DHT22;60138;55.808;37.078;2022-12-11T00:46:35;1.16;75.12
70214;DHT22;60138;55.808;37.078;2022-12-11T00:49:00;1.17;74.98
70214;DHT22;60138;55.808;37.078;2022-12-11T00:51:26;1.16;74.93
70214;DHT22;60138;55.808;37.078;2022-12-11T00:53:52;1.14;75.04
70214;DHT22;60138;55.808;37.078;2022-12-11T00:56:20;1.16;74.97
70214;DHT22;60138;55.808;37.078;2022-12-11T00:58:47;1.14;74.93
70214;DHT22;60138;55.808;37.078;2022-12-11T01:01:19;1.14;74.87
70214;DHT22;60138;55.808;37.078;2022-12-11T01:03:45;1.16;74.85
70214;DHT22;60138;55.808;37.078;2022-12-11T01:06:22;1.13;74.90
70214;DHT22;60138;55.808;37.078;2022-12-11T01:08:49;1.14;74.94
70214;DHT22;60138;55.808;37.078;2022-12-11T01:11:15;1.13;74.96
70214;DHT22;60138;55.808;37.078;2022-12-11T01:13:43;1.11;74.88
70214;DHT22;60138;55.808;37.078;2022-12-11T01:16:12;1.10;74.91
70214;DHT22;60138;55.808;37.078;2022-12-11T01:18:38;1.09;74.88
70214;DHT22;60138;55.808;37.078;2022-12-11T01:21:13;1.07;74.86
70214;DHT22;60138;55.808;37.078;2022-12-11T01:23:39;1.05;74.90
70214;DHT22;60138;55.808;37.078;2022-12-11T01:26:08;1.04;75.04
70214;DHT22;60138;55.808;37.078;2022-12-11T01:28:34;1.02;75.05
70214;DHT22;60138;55.808;37.078;2022-12-11T01:31:09;0.99;75.06
70214;DHT22;60138;55.808;37.078;2022-12-11T01:33:36;1.01;75.15
70214;DHT22;60138;55.808;37.078;2022-12-11T01:36:09;0.99;75.05
70214;DHT22;60138;55.808;37.078;2022-12-11T01:38:35;1.01;75.05
70214;DHT22;60138;55.808;37.078;2022-12-11T01:41:01;1.02;75.15
70214;DHT22;60138;55.808;37.078;2022-12-11T01:43:27;1.04;75.16
70214;DHT22;60138;55.808;37.078;2022-12-11T01:45:55;1.08;75.03
70214;DHT22;60138;55.808;37.078;2022-12-11T01:48:27;1.04;74.91
70214;DHT22;60138;55.808;37.078;2022-12-11T01:50:57;1.01;74.96
70214;DHT22;60138;55.808;37.078;2022-12-11T01:53:46;1.01;74.99
70214;DHT22;60138;55.808;37.078;2022-12-11T01:56:42;0.97;74.94
70214;DHT22;60138;55.808;37.078;2022-12-11T02:02:24;0.94;75.15
70214;DHT22;60138;55.808;37.078;2022-12-11T02:04:51;0.96;75.19
70214;DHT22;60138;55.808;37.078;2022-12-11T02:07:16;0.98;75.26
70214;DHT22;60138;55.808;37.078;2022-12-11T02:09:44;0.99;75.23
70214;DHT22;60138;55.808;37.078;2022-12-11T02:15:35;0.97;75.17
70214;DHT22;60138;55.808;37.078;2022-12-11T02:21:12;0.97;75.17
70214;DHT22;60138;55.808;37.078;2022-12-11T02:24:00;0.96;75.16
70214;DHT22;60138;55.808;37.078;2022-12-11T02:29:18;0.98;75.08
70214;DHT22;60138;55.808;37.078;2022-12-11T02:32:08;0.95;75.09
70214;DHT22;60138;55.808;37.078;2022-12-11T02:37:58;0.91;75.17
70214;DHT22;60138;55.808;37.078;2022-12-11T02:40:28;0.88;75.19
70214;DHT22;60138;55.808;37.078;2022-12-11T02:42:56;0.88;75.34
70214;DHT22;60138;55.808;37.078;2022-12-11T02:45:23;0.81;75.32
70214;DHT22;60138;55.808;37.078;2022-12-11T02:47:51;0.83;75.39
70214;DHT22;60138;55.808;37.078;2022-12-11T02:50:19;0.82;75.35
70214;DHT22;60138;55.808;37.078;2022-12-11T02:52:47;0.81;75.45
70214;DHT22;60138;55.808;37.078;2022-12-11T02:55:15;0.83;75.41
70214;DHT22;60138;55.808;37.078;2022-12-11T02:57:46;0.84;75.34
70214;DHT22;60138;55.808;37.078;2022-12-11T03:00:12;0.86;75.36
70214;DHT22;60138;55.808;37.078;2022-12-11T03:02:39;0.89;75.43
70214;DHT22;60138;55.808;37.078;2022-12-11T03:05:05;0.91;75.26
70214;DHT22;60138;55.808;37.078;2022-12-11T03:07:33;0.84;75.24
70214;DHT22;60138;55.808;37.078;2022-12-11T03:10:00;0.86;75.32
70214;DHT22;60138;55.808;37.078;2022-12-11T03:12:32;0.89;75.32
70214;DHT22;60138;55.808;37.078;2022-12-11T03:15:07;0.89;75.30
70214;DHT22;60138;55.808;37.078;2022-12-11T03:26:14;0.88;75.25
70214;DHT22;60138;55.808;37.078;2022-12-11T03:29:18;0.88;75.20
70214;DHT22;60138;55.808;37.078;2022-12-11T03:32:09;0.86;75.27
70214;DHT22;60138;55.808;37.078;2022-12-11T03:37:06;0.81;75.15
70214;DHT22;60138;55.808;37.078;2022-12-11T03:39:37;0.79;75.21
70214;DHT22;60138;55.808;37.078;2022-12-11T03:42:07;0.79;75.37
70214;DHT22;60138;55.808;37.078;2022-12-11T03:44:35;0.78;75.21
70214;DHT22;60138;55.808;37.078;2022-12-11T03:47:04;0.77;75.37
70214;DHT22;60138;55.808;37.078;2022-12-11T03:49:38;0.79;75.32
70214;DHT22;60138;55.808;37.078;2022-12-11T03:52:07;0.77;75.12
70214;DHT22;60138;55.808;37.078;2022-12-11T03:54:34;0.71;75.10
70214;DHT22;60138;55.808;37.078;2022-12-11T03:57:01;0.63;75.12
70214;DHT22;60138;55.808;37.078;2022-12-11T03:59:28;0.61;75.31
70214;DHT22;60138;55.808;37.078;2022-12-11T04:01:54;0.57;75.30
70214;DHT22;60138;55.808;37.078;2022-12-11T04:04:20;0.58;75.44
70214;DHT22;60138;55.808;37.078;2022-12-11T04:06:45;0.55;75.38
70214;DHT22;60138;55.808;37.078;2022-12-11T04:09:11;0.54;75.40
70214;DHT22;60138;55.808;37.078;2022-12-11T04:11:37;0.50;75.28
70214;DHT22;60138;55.808;37.078;2022-12-11T04:14:09;0.50;75.50
70214;DHT22;60138;55.808;37.078;2022-12-11T04:16:35;0.58;75.66
70214;DHT22;60138;55.808;37.078;2022-12-11T04:19:01;0.59;75.51
70214;DHT22;60138;55.808;37.078;2022-12-11T04:21:26;0.60;75.40
70214;DHT22;60138;55.808;37.078;2022-12-11T04:23:52;0.64;75.44
70214;DHT22;60138;55.808;37.078;2022-12-11T04:26:19;0.65;75.21
70214;DHT22;60138;55.808;37.078;2022-12-11T04:28:46;0.63;75.12
70214;DHT22;60138;55.808;37.078;2022-12-11T04:31:17;0.61;75.15
70214;DHT22;60138;55.808;37.078;2022-12-11T04:33:43;0.62;75.22
70214;DHT22;60138;55.808;37.078;2022-12-11T04:36:11;0.66;75.18
70214;DHT22;60138;55.808;37.078;2022-12-11T04:38:36;0.68;75.17
70214;DHT22;60138;55.808;37.078;2022-12-11T04:41:05;0.67;74.96
70214;DHT22;60138;55.808;37.078;2022-12-11T04:43:32;0.62;74.76
70214;DHT22;60138;55.808;37.078;2022-12-11T04:48:27;0.51;74.89
70214;DHT22;60138;55.808;37.078;2022-12-11T04:50:53;0.53;74.99
70214;DHT22;60138;55.808;37.078;2022-12-11T04:53:19;0.54;74.94
70214;DHT22;60138;55.808;37.078;2022-12-11T04:55:44;0.54;74.83
70214;DHT22;60138;55.808;37.078;2022-12-11T04:58:10;0.51;74.80
70214;DHT22;60138;55.808;37.078;2022-12-11T05:00:35;0.48;74.74
70214;DHT22;60138;55.808;37.078;2022-12-11T05:03:01;0.45;74.80
70214;DHT22;60138;55.808;37.078;2022-12-11T05:05:27;0.46;74.78
70214;DHT22;60138;55.808;37.078;2022-12-11T05:07:52;0.46;74.78
70214;DHT22;60138;55.808;37.078;2022-12-11T05:10:18;0.49;74.79
70214;DHT22;60138;55.808;37.078;2022-12-11T05:12:44;0.49;74.76
70214;DHT22;60138;55.808;37.078;2022-12-11T05:15:09;0.46;74.64
70214;DHT22;60138;55.808;37.078;2022-12-11T05:17:35;0.47;74.60
70214;DHT22;60138;55.808;37.078;2022-12-11T05:20:01;0.48;74.68
70214;DHT22;60138;55.808;37.078;2022-12-11T05:22:29;0.47;74.60
70214;DHT22;60138;55.808;37.078;2022-12-11T05:24:55;0.43;74.44
70214;DHT22;60138;55.808;37.078;2022-12-11T05:27:21;0.38;74.46
70214;DHT22;60138;55.808;37.078;2022-12-11T05:29:46;0.34;74.48
70214;DHT22;60138;55.808;37.078;2022-12-11T05:32:12;0.35;74.67
70214;DHT22;60138;55.808;37.078;2022-12-11T05:34:38;0.37;74.57
70214;DHT22;60138;55.808;37.078;2022-12-11T05:37:03;0.40;74.66
70214;DHT22;60138;55.808;37.078;2022-12-11T05:39:30;0.43;74.66
70214;DHT22;60138;55.808;37.078;2022-12-11T05:41:55;0.46;74.42
70214;DHT22;60138;55.808;37.078;2022-12-11T05:44:24;0.43;74.35
70214;DHT22;60138;55.808;37.078;2022-12-11T05:46:49;0.43;74.40
70214;DHT22;60138;55.808;37.078;2022-12-11T05:49:15;0.44;74.43
70214;DHT22;60138;55.808;37.078;2022-12-11T05:51:41;0.47;74.34
70214;DHT22;60138;55.808;37.078;2022-12-11T05:54:08;0.47;74.13
70214;DHT22;60138;55.808;37.078;2022-12-11T05:56:34;0.46;74.14
70214;DHT22;60138;55.808;37.078;2022-12-11T05:59:01;0.40;73.87
70214;DHT22;60138;55.808;37.078;2022-12-11T06:01:32;0.39;74.07
70214;DHT22;60138;55.808;37.078;2022-12-11T06:03:58;0.39;74.06
70214;DHT22;60138;55.808;37.078;2022-12-11T06:06:26;0.38;74.09
70214;DHT22;60138;55.808;37.078;2022-12-11T06:08:53;0.40;74.04
70214;DHT22;60138;55.808;37.078;2022-12-11T06:11:21;0.40;73.91
70214;DHT22;60138;55.808;37.078;2022-12-11T06:13:47;0.44;73.86
70214;DHT22;60138;55.808;37.078;2022-12-11T06:16:12;0.46;73.65
70214;DHT22;60138;55.808;37.078;2022-12-11T06:18:43;0.47;73.74
70214;DHT22;60138;55.808;37.078;2022-12-11T06:23:37;0.47;73.60
70214;DHT22;60138;55.808;37.078;2022-12-11T06:26:03;0.47;73.62
70214;DHT22;60138;55.808;37.078;2022-12-11T06:28:29;0.51;73.66
70214;DHT22;60138;55.808;37.078;2022-12-11T06:30:58;0.54;73.56
70214;DHT22;60138;55.808;37.078;2022-12-11T06:33:24;0.55;73.57
70214;DHT22;60138;55.808;37.078;2022-12-11T06:35:49;0.60;73.36
70214;DHT22;60138;55.808;37.078;2022-12-11T06:38:15;0.55;73.44
70214;DHT22;60138;55.808;37.078;2022-12-11T06:40:44;0.57;73.09
70214;DHT22;60138;55.808;37.078;2022-12-11T06:43:10;0.55;73.04
70214;DHT22;60138;55.808;37.078;2022-12-11T06:45:36;0.53;73.04
70214;DHT22;60138;55.808;37.078;2022-12-11T06:48:02;0.53;73.19
70214;DHT22;60138;55.808;37.078;2022-12-11T06:50:30;0.54;72.89
70214;DHT22;60138;55.808;37.078;2022-12-11T06:52:57;0.55;73.09
70214;DHT22;60138;55.808;37.078;2022-12-11T06:55:23;0.57;72.83
70214;DHT22;60138;55.808;37.078;2022-12-11T06:57:49;0.55;72.92
70214;DHT22;60138;55.808;37.078;2022-12-11T07:00:15;0.59;73.12
70214;DHT22;60138;55.808;37.078;2022-12-11T07:02:42;0.63;73.02
70214;DHT22;60138;55.808;37.078;2022-12-11T07:05:09;0.65;73.06
70214;DHT22;60138;55.808;37.078;2022-12-11T07:07:35;0.69;72.93
70214;DHT22;60138;55.808;37.078;2022-12-11T07:10:24;0.75;72.79
70214;DHT22;60138;55.808;37.078;2022-12-11T07:34:48;0.83;71.64
70214;DHT22;60138;55.808;37.078;2022-12-11T07:46:24;0.89;71.68
70214;DHT22;60138;55.808;37.078;2022-12-11T07:48:50;0.89;71.77
70214;DHT22;60138;55.808;37.078;2022-12-11T07:51:24;0.86;71.46
70214;DHT22;60138;55.808;37.078;2022-12-11T07:53:52;0.87;71.51
70214;DHT22;60138;55.808;37.078;2022-12-11T07:56:18;0.94;71.58
70214;DHT22;60138;55.808;37.078;2022-12-11T07:58:44;0.97;71.45
70214;DHT22;60138;55.808;37.078;2022-12-11T08:01:31;0.99;71.40
70214;DHT22;60138;55.808;37.078;2022-12-11T08:03:57;1.05;71.25
70214;DHT22;60138;55.808;37.078;2022-12-11T08:06:31;1.07;71.26
70214;DHT22;60138;55.808;37.078;2022-12-11T08:08:59;1.03;71.35
70214;DHT22;60138;55.808;37.078;2022-12-11T08:11:28;1.03;70.94
70214;DHT22;60138;55.808;37.078;2022-12-11T08:13:54;1.04;71.11
70214;DHT22;60138;55.808;37.078;2022-12-11T08:16:20;1.07;70.99
70214;DHT22;60138;55.808;37.078;2022-12-11T08:18:46;1.05;71.10
70214;DHT22;60138;55.808;37.078;2022-12-11T08:21:16;1.06;71.17
70214;DHT22;60138;55.808;37.078;2022-12-11T08:23:43;1.09;70.70
70214;DHT22;60138;55.808;37.078;2022-12-11T08:26:14;1.08;70.77
70214;DHT22;60138;55.808;37.078;2022-12-11T08:28:43;1.13;70.81
70214;DHT22;60138;55.808;37.078;2022-12-11T08:31:13;1.20;70.76
70214;DHT22;60138;55.808;37.078;2022-12-11T08:33:40;1.27;70.87
70214;DHT22;60138;55.808;37.078;2022-12-11T08:36:10;1.26;70.80
70214;DHT22;60138;55.808;37.078;2022-12-11T08:38:36;1.31;70.39
70214;DHT22;60138;55.808;37.078;2022-12-11T08:41:16;1.38;70.73
70214;DHT22;60138;55.808;37.078;2022-12-11T08:43:42;1.37;69.73
70214;DHT22;60138;55.808;37.078;2022-12-11T08:46:11;1.33;70.23
70214;DHT22;60138;55.808;37.078;2022-12-11T08:48:38;1.34;70.82
70214;DHT22;60138;55.808;37.078;2022-12-11T08:51:06;1.35;70.63
70214;DHT22;60138;55.808;37.078;2022-12-11T08:53:33;1.37;70.56
70214;DHT22;60138;55.808;37.078;2022-12-11T08:56:06;1.33;69.87
70214;DHT22;60138;55.808;37.078;2022-12-11T08:58:33;1.29;69.91
70214;DHT22;60138;55.808;37.078;2022-12-11T09:00:58;1.32;70.13
70214;DHT22;60138;55.808;37.078;2022-12-11T09:03:24;1.28;70.33
70214;DHT22;60138;55.808;37.078;2022-12-11T09:05:50;1.27;70.49
70214;DHT22;60138;55.808;37.078;2022-12-11T09:08:16;1.29;70.23
70214;DHT22;60138;55.808;37.078;2022-12-11T09:10:50;1.23;69.71
70214;DHT22;60138;55.808;37.078;2022-12-11T09:13:16;1.25;70.34
70214;DHT22;60138;55.808;37.078;2022-12-11T09:15:41;1.26;70.38
70214;DHT22;60138;55.808;37.078;2022-12-11T09:18:07;1.26;69.90
70214;DHT22;60138;55.808;37.078;2022-12-11T09:20:33;1.26;70.34
70214;DHT22;60138;55.808;37.078;2022-12-11T09:23:00;1.23;69.79
70214;DHT22;60138;55.808;37.078;2022-12-11T09:25:25;1.24;70.30
70214;DHT22;60138;55.808;37.078;2022-12-11T09:27:51;1.24;70.44
70214;DHT22;60138;55.808;37.078;2022-12-11T09:30:17;1.32;70.39
70214;DHT22;60138;55.808;37.078;2022-12-11T09:32:42;1.36;70.45
70214;DHT22;60138;55.808;37.078;2022-12-11T09:35:08;1.38;69.94
70214;DHT22;60138;55.808;37.078;2022-12-11T09:37:34;1.37;69.78
70214;DHT22;60138;55.808;37.078;2022-12-11T09:40:00;1.38;70.18
70214;DHT22;60138;55.808;37.078;2022-12-11T09:45:14;1.43;69.83
70214;DHT22;60138;55.808;37.078;2022-12-11T09:47:47;1.51;70.03
70214;DHT22;60138;55.808;37.078;2022-12-11T09:50:23;1.54;69.91
70214;DHT22;60138;55.808;37.078;2022-12-11T09:53:04;1.56;69.49
70214;DHT22;60138;55.808;37.078;2022-12-11T10:00:54;1.45;69.58
70214;DHT22;60138;55.808;37.078;2022-12-11T10:09:21;1.49;69.91
70214;DHT22;60138;55.808;37.078;2022-12-11T10:12:32;1.50;70.02
70214;DHT22;60138;55.808;37.078;2022-12-11T10:17:36;1.47;69.61
70214;DHT22;60138;55.808;37.078;2022-12-11T10:20:23;1.46;69.87
70214;DHT22;60138;55.808;37.078;2022-12-11T10:22:51;1.50;69.99
70214;DHT22;60138;55.808;37.078;2022-12-11T10:25:21;1.52;70.01
70214;DHT22;60138;55.808;37.078;2022-12-11T10:27:49;1.54;69.72
70214;DHT22;60138;55.808;37.078;2022-12-11T10:30:18;1.53;69.99
70214;DHT22;60138;55.808;37.078;2022-12-11T10:35:17;1.52;69.72
70214;DHT22;60138;55.808;37.078;2022-12-11T10:37:43;1.48;69.82
70214;DHT22;60138;55.808;37.078;2022-12-11T10:40:10;1.46;69.55
70214;DHT22;60138;55.808;37.078;2022-12-11T10:42:36;1.43;69.36
70214;DHT22;60138;55.808;37.078;2022-12-11T10:45:04;1.41;69.81
70214;DHT22;60138;55.808;37.078;2022-12-11T10:47:30;1.39;69.80
70214;DHT22;60138;55.808;37.078;2022-12-11T10:50:00;1.36;69.95
70214;DHT22;60138;55.808;37.078;2022-12-11T10:52:34;1.33;69.90
70214;DHT22;60138;55.808;37.078;2022-12-11T10:55:15;1.28;70.06
70214;DHT22;60138;55.808;37.078;2022-12-11T10:57:42;1.21;70.15
70214;DHT22;60138;55.808;37.078;2022-12-11T11:00:33;1.14;70.39
70214;DHT22;60138;55.808;37.078;2022-12-11T11:03:00;1.10;70.35
70214;DHT22;60138;55.808;37.078;2022-12-11T11:05:34;1.10;70.59
70214;DHT22;60138;55.808;37.078;2022-12-11T11:08:18;1.09;70.29
70214;DHT22;60138;55.808;37.078;2022-12-11T11:13:15;1.18;70.42
70214;DHT22;60138;55.808;37.078;2022-12-11T11:15:41;1.20;70.13
70214;DHT22;60138;55.808;37.078;2022-12-11T11:18:19;1.19;70.16
70214;DHT22;60138;55.808;37.078;2022-12-11T11:20:47;1.19;70.23
70214;DHT22;60138;55.808;37.078;2022-12-11T11:23:14;1.19;70.42
70214;DHT22;60138;55.808;37.078;2022-12-11T11:25:58;1.20;70.35
70214;DHT22;60138;55.808;37.078;2022-12-11T11:28:26;1.27;70.53
70214;DHT22;60138;55.808;37.078;2022-12-11T11:30:59;1.26;70.50
70214;DHT22;60138;55.808;37.078;2022-12-11T11:33:26;1.23;70.30
70214;DHT22;60138;55.808;37.078;2022-12-11T11:35:54;1.18;70.40
70214;DHT22;60138;55.808;37.078;2022-12-11T11:38:25;1.17;70.46
70214;DHT22;60138;55.808;37.078;2022-12-11T11:41:14;1.16;70.15
70214;DHT22;60138;55.808;37.078;2022-12-11T11:46:29;1.09;70.52
70214;DHT22;60138;55.808;37.078;2022-12-11T11:49:14;1.06;70.66
70214;DHT22;60138;55.808;37.078;2022-12-11T11:52:02;0.99;70.53
70214;DHT22;60138;55.808;37.078;2022-12-11T11:54:49;0.96;70.83
70214;DHT22;60138;55.808;37.078;2022-12-11T11:57:28;0.96;70.74
70214;DHT22;60138;55.808;37.078;2022-12-11T12:00:18;0.95;70.74
70214;DHT22;60138;55.808;37.078;2022-12-11T12:02:44;0.93;70.80
70214;DHT22;60138;55.808;37.078;2022-12-11T12:05:14;0.89;70.84
70214;DHT22;60138;55.808;37.078;2022-12-11T12:07:47;0.84;70.95
70214;DHT22;60138;55.808;37.078;2022-12-11T12:10:24;0.83;71.13
70214;DHT22;60138;55.808;37.078;2022-12-11T12:13:20;0.83;71.19
70214;DHT22;60138;55.808;37.078;2022-12-11T12:15:54;0.74;71.67
70214;DHT22;60138;55.808;37.078;2022-12-11T12:18:49;0.67;71.99
70214;DHT22;60138;55.808;37.078;2022-12-11T12:21:36;0.65;72.19
70214;DHT22;60138;55.808;37.078;2022-12-11T12:30:02;0.55;73.67
70214;DHT22;60138;55.808;37.078;2022-12-11T12:41:54;0.34;74.42
70214;DHT22;60138;55.808;37.078;2022-12-11T12:44:23;0.30;74.47
70214;DHT22;60138;55.808;37.078;2022-12-11T12:46:59;0.25;74.70
70214;DHT22;60138;55.808;37.078;2022-12-11T12:49:41;0.22;75.54
70214;DHT22;60138;55.808;37.078;2022-12-11T12:54:52;0.17;75.21
70214;DHT22;60138;55.808;37.078;2022-12-11T12:57:18;0.15;75.09
70214;DHT22;60138;55.808;37.078;2022-12-11T12:59:53;0.16;75.82
70214;DHT22;60138;55.808;37.078;2022-12-11T13:02:19;0.13;75.55
70214;DHT22;60138;55.808;37.078;2022-12-11T13:04:57;0.14;75.65
70214;DHT22;60138;55.808;37.078;2022-12-11T13:07:30;0.15;75.08
70214;DHT22;60138;55.808;37.078;2022-12-11T13:12:40;0.12;75.91
70214;DHT22;60138;55.808;37.078;2022-12-11T13:15:37;0.13;75.79
70214;DHT22;60138;55.808;37.078;2022-12-11T13:20:52;0.15;75.74
70214;DHT22;60138;55.808;37.078;2022-12-11T13:23:26;0.14;75.86
70214;DHT22;60138;55.808;37.078;2022-12-11T13:25:55;0.15;75.79
70214;DHT22;60138;55.808;37.078;2022-12-11T13:28:27;0.14;75.95
70214;DHT22;60138;55.808;37.078;2022-12-11T13:31:27;0.14;76.27
70214;DHT22;60138;55.808;37.078;2022-12-11T13:33:55;0.14;76.34
70214;DHT22;60138;55.808;37.078;2022-12-11T13:36:36;0.15;76.07
70214;DHT22;60138;55.808;37.078;2022-12-11T13:39:23;0.13;75.72
70214;DHT22;60138;55.808;37.078;2022-12-11T13:41:52;0.13;76.00
70214;DHT22;60138;55.808;37.078;2022-12-11T13:44:26;0.10;75.37
70214;DHT22;60138;55.808;37.078;2022-12-11T13:46:57;0.08;76.22
70214;DHT22;60138;55.808;37.078;2022-12-11T13:49:35;0.06;76.12
70214;DHT22;60138;55.808;37.078;2022-12-11T13:52:03;0.07;76.13
70214;DHT22;60138;55.808;37.078;2022-12-11T13:54:32;0.06;76.34
70214;DHT22;60138;55.808;37.078;2022-12-11T13:57:01;0.06;76.31
70214;DHT22;60138;55.808;37.078;2022-12-11T13:59:35;0.05;76.28
70214;DHT22;60138;55.808;37.078;2022-12-11T14:02:21;0.03;76.08
70214;DHT22;60138;55.808;37.078;2022-12-11T14:04:51;0.02;76.75
70214;DHT22;60138;55.808;37.078;2022-12-11T14:07:30;0.05;76.53
70214;DHT22;60138;55.808;37.078;2022-12-11T14:10:01;0.05;76.98
70214;DHT22;60138;55.808;37.078;2022-12-11T14:12:29;0.05;76.63
70214;DHT22;60138;55.808;37.078;2022-12-11T14:14:56;0.05;76.43
70214;DHT22;60138;55.808;37.078;2022-12-11T14:17:26;0.05;76.57
70214;DHT22;60138;55.808;37.078;2022-12-11T14:19:53;0.04;76.92
70214;DHT22;60138;55.808;37.078;2022-12-11T14:22:22;0.06;76.88
70214;DHT22;60138;55.808;37.078;2022-12-11T14:25:00;0.05;76.60
70214;DHT22;60138;55.808;37.078;2022-12-11T14:27:26;0.05;76.49
70214;DHT22;60138;55.808;37.078;2022-12-11T14:29:53;0.05;76.63
70214;DHT22;60138;55.808;37.078;2022-12-11T14:34:56;0.04;76.23
70214;DHT22;60138;55.808;37.078;2022-12-11T14:37:23;0.02;77.21
70214;DHT22;60138;55.808;37.078;2022-12-11T14:40:04;0.05;76.90
70214;DHT22;60138;55.808;37.078;2022-12-11T14:42:35;0.05;77.04
70214;DHT22;60138;55.808;37.078;2022-12-11T14:47:44;0.02;76.83
70214;DHT22;60138;55.808;37.078;2022-12-11T14:50:18;0.02;76.85
70214;DHT22;60138;55.808;37.078;2022-12-11T14:52:50;0.03;77.20
70214;DHT22;60138;55.808;37.078;2022-12-11T14:55:26;0.04;77.31
70214;DHT22;60138;55.808;37.078;2022-12-11T14:57:57;0.06;77.41
70214;DHT22;60138;55.808;37.078;2022-12-11T15:00:27;0.10;77.32
70214;DHT22;60138;55.808;37.078;2022-12-11T15:03:02;0.14;77.50
70214;DHT22;60138;55.808;37.078;2022-12-11T15:05:30;0.17;77.60
70214;DHT22;60138;55.808;37.078;2022-12-11T15:08:19;0.21;77.50
70214;DHT22;60138;55.808;37.078;2022-12-11T15:13:26;0.28;77.61
70214;DHT22;60138;55.808;37.078;2022-12-11T15:15:52;0.30;77.79
70214;DHT22;60138;55.808;37.078;2022-12-11T15:20:52;0.36;77.92
70214;DHT22;60138;55.808;37.078;2022-12-11T15:23:18;0.38;78.37
70214;DHT22;60138;55.808;37.078;2022-12-11T15:26:00;0.40;78.11
70214;DHT22;60138;55.808;37.078;2022-12-11T15:28:35;0.42;78.14
70214;DHT22;60138;55.808;37.078;2022-12-11T15:45:21;0.43;77.83
70214;DHT22;60138;55.808;37.078;2022-12-11T15:48:56;0.46;78.09
70214;DHT22;60138;55.808;37.078;2022-12-11T15:54:23;0.48;78.22
70214;DHT22;60138;55.808;37.078;2022-12-11T15:56:50;0.47;77.82
70214;DHT22;60138;55.808;37.078;2022-12-11T15:59:31;0.46;77.87
70214;DHT22;60138;55.808;37.078;2022-12-11T16:01:57;0.48;77.95
70214;DHT22;60138;55.808;37.078;2022-12-11T16:04:23;0.48;77.71
70214;DHT22;60138;55.808;37.078;2022-12-11T16:06:50;0.47;77.62
70214;DHT22;60138;55.808;37.078;2022-12-11T16:09:15;0.47;77.21
70214;DHT22;60138;55.808;37.078;2022-12-11T16:11:41;0.48;77.66
70214;DHT22;60138;55.808;37.078;2022-12-11T16:14:39;0.48;77.88
70214;DHT22;60138;55.808;37.078;2022-12-11T16:23:19;0.47;78.53
70214;DHT22;60138;55.808;37.078;2022-12-11T16:25:45;0.47;78.63
70214;DHT22;60138;55.808;37.078;2022-12-11T16:28:13;0.50;78.37
70214;DHT22;60138;55.808;37.078;2022-12-11T16:30:39;0.51;78.43
70214;DHT22;60138;55.808;37.078;2022-12-11T16:33:06;0.53;78.49
70214;DHT22;60138;55.808;37.078;2022-12-11T16:35:32;0.52;78.16
70214;DHT22;60138;55.808;37.078;2022-12-11T16:37:58;0.52;78.47
70214;DHT22;60138;55.808;37.078;2022-12-11T16:40:24;0.54;78.50
70214;DHT22;60138;55.808;37.078;2022-12-11T16:42:57;0.57;78.92
70214;DHT22;60138;55.808;37.078;2022-12-11T16:45:25;0.57;79.01
70214;DHT22;60138;55.808;37.078;2022-12-11T16:47:53;0.57;78.43
70214;DHT22;60138;55.808;37.078;2022-12-11T16:50:19;0.57;78.24
70214;DHT22;60138;55.808;37.078;2022-12-11T16:52:45;0.55;78.44
70214;DHT22;60138;55.808;37.078;2022-12-11T16:55:11;0.55;78.48
70214;DHT22;60138;55.808;37.078;2022-12-11T16:57:38;0.54;78.01
70214;DHT22;60138;55.808;37.078;2022-12-11T17:00:06;0.53;78.98
70214;DHT22;60138;55.808;37.078;2022-12-11T17:02:32;0.54;78.76
70214;DHT22;60138;55.808;37.078;2022-12-11T17:04:57;0.53;78.51
70214;DHT22;60138;55.808;37.078;2022-12-11T17:07:23;0.55;78.27
70214;DHT22;60138;55.808;37.078;2022-12-11T17:09:49;0.55;78.54
70214;DHT22;60138;55.808;37.078;2022-12-11T17:12:15;0.60;78.04
70214;DHT22;60138;55.808;37.078;2022-12-11T17:14:41;0.59;78.44
70214;DHT22;60138;55.808;37.078;2022-12-11T17:17:07;0.57;78.91
70214;DHT22;60138;55.808;37.078;2022-12-11T17:19:33;0.58;78.91
70214;DHT22;60138;55.808;37.078;2022-12-11T17:21:58;0.60;78.30
70214;DHT22;60138;55.808;37.078;2022-12-11T17:24:24;0.60;78.38
70214;DHT22;60138;55.808;37.078;2022-12-11T17:26:50;0.61;78.67
70214;DHT22;60138;55.808;37.078;2022-12-11T17:29:16;0.61;78.69
70214;DHT22;60138;55.808;37.078;2022-12-11T17:31:42;0.62;78.76
70214;DHT22;60138;55.808;37.078;2022-12-11T17:34:08;0.64;78.95
70214;DHT22;60138;55.808;37.078;2022-12-11T17:36:34;0.65;78.85
70214;DHT22;60138;55.808;37.078;2022-12-11T17:39:00;0.66;79.08
70214;DHT22;60138;55.808;37.078;2022-12-11T17:41:25;0.67;79.33
70214;DHT22;60138;55.808;37.078;2022-12-11T17:43:52;0.68;78.89
70214;DHT22;60138;55.808;37.078;2022-12-11T17:46:19;0.72;78.82
70214;DHT22;60138;55.808;37.078;2022-12-11T17:48:46;0.73;79.11
70214;DHT22;60138;55.808;37.078;2022-12-11T17:51:13;0.76;79.61
70214;DHT22;60138;55.808;37.078;2022-12-11T17:53:39;0.77;79.17
70214;DHT22;60138;55.808;37.078;2022-12-11T17:56:06;0.80;79.04
70214;DHT22;60138;55.808;37.078;2022-12-11T17:58:33;0.83;78.98
70214;DHT22;60138;55.808;37.078;2022-12-11T18:01:04;0.83;79.36
70214;DHT22;60138;55.808;37.078;2022-12-11T18:03:30;0.88;78.94
70214;DHT22;60138;55.808;37.078;2022-12-11T18:06:03;0.91;79.05
70214;DHT22;60138;55.808;37.078;2022-12-11T18:08:29;0.95;79.05
70214;DHT22;60138;55.808;37.078;2022-12-11T18:10:55;0.99;78.54
70214;DHT22;60138;55.808;37.078;2022-12-11T18:13:22;0.99;78.69